createdAt,value
2022-10-11T00:04:07.721Z,6.05
2022-10-11T00:08:20.262Z,3.17
2022-10-11T00:12:32.716Z,6.80
2022-10-11T00:16:45.335Z,6.80
2022-10-11T00:21:07.213Z,5.45
2022-10-11T00:25:20.309Z,4.47
2022-10-11T00:29:32.600Z,4.80
2022-10-11T00:33:45.564Z,8.18
2022-10-11T00:37:58.277Z,6.75
2022-10-11T00:42:15.300Z,5.55
2022-10-11T00:46:30.908Z,4.53
2022-10-11T00:50:43.378Z,4.63
2022-10-11T00:54:58.086Z,4.38
2022-10-11T00:59:17.328Z,3.63
2022-10-11T01:07:43.992Z,3.95
2022-10-11T01:12:00.087Z,3.83
2022-10-11T01:16:42.322Z,7.57
2022-10-11T01:21:16.301Z,6.95
2022-10-11T01:25:37.779Z,7.50
2022-10-11T01:30:05.237Z,4.15
2022-10-11T01:34:36.272Z,5.63
2022-10-11T01:38:53.409Z,5.50
2022-10-11T01:43:06.766Z,12.25
2022-10-11T01:47:23.990Z,4.22
2022-10-11T01:51:45.106Z,6.35
2022-10-11T01:56:05.507Z,3.47
2022-10-11T02:00:25.144Z,8.52
2022-10-11T02:09:20.760Z,3.17
2022-10-11T02:13:45.076Z,7.32
2022-10-11T02:18:01.505Z,6.85
2022-10-11T02:22:22.339Z,4.28
2022-10-11T02:26:36.937Z,6.28
2022-10-11T02:30:51.120Z,6.82
2022-10-11T02:35:03.954Z,3.40
2022-10-11T02:39:22.580Z,7.18
2022-10-11T02:43:40.263Z,9.85
2022-10-11T02:47:53.153Z,5.43
2022-10-11T02:52:07.342Z,5.25
2022-10-11T02:56:20.017Z,3.60
2022-10-11T03:00:32.366Z,5.97
2022-10-11T03:04:44.781Z,13.60
2022-10-11T03:09:03.035Z,3.37
2022-10-11T03:13:18.404Z,4.93
2022-10-11T03:17:36.610Z,6.07
2022-10-11T03:21:49.518Z,7.60
2022-10-11T03:26:02.120Z,3.78
2022-10-11T03:30:17.974Z,3.38
2022-10-11T03:34:30.692Z,4.07
2022-10-11T03:38:43.091Z,3.80
2022-10-11T03:42:57.191Z,9.52
2022-10-11T03:47:09.676Z,3.80
2022-10-11T03:51:21.966Z,9.70
2022-10-11T03:55:34.310Z,8.48
2022-10-11T03:59:46.647Z,4.32
2022-10-11T04:03:59.060Z,3.65
2022-10-11T04:08:12.418Z,6.43
2022-10-11T04:12:24.992Z,5.40
2022-10-11T04:16:39.440Z,6.22
2022-10-11T04:20:51.875Z,4.65
2022-10-11T04:25:05.580Z,5.55
2022-10-11T04:29:18.272Z,3.60
2022-10-11T04:33:30.558Z,4.07
2022-10-11T04:37:42.864Z,5.28
2022-10-11T04:41:55.142Z,9.82
2022-10-11T04:46:08.751Z,5.70
2022-10-11T04:50:21.464Z,5.35
2022-10-11T04:54:34.401Z,5.78
2022-10-11T04:58:49.015Z,7.95
2022-10-11T05:03:01.340Z,3.80
2022-10-11T05:07:13.758Z,5.72
2022-10-11T05:11:26.031Z,4.85
2022-10-11T05:15:38.299Z,3.67
2022-10-11T05:19:50.597Z,6.22
2022-10-11T05:24:03.044Z,3.65
2022-10-11T05:28:15.332Z,4.60
2022-10-11T05:32:28.174Z,7.32
2022-10-11T05:36:40.644Z,3.42
2022-10-11T05:41:01.826Z,7.30
2022-10-11T05:45:14.107Z,6.07
2022-10-11T05:49:26.487Z,4.57
2022-10-11T05:53:40.089Z,6.63
2022-10-11T05:57:56.786Z,3.92
2022-10-11T06:02:13.346Z,4.15
2022-10-11T06:06:25.728Z,3.78
2022-10-11T06:10:39.072Z,3.88
2022-10-11T06:14:51.369Z,5.45
2022-10-11T06:19:04.307Z,4.38
2022-10-11T06:23:16.561Z,4.60
2022-10-11T06:27:28.967Z,4.15
2022-10-11T06:31:41.293Z,6.28
2022-10-11T06:36:02.726Z,4.45
2022-10-11T06:40:15.316Z,4.10
2022-10-11T06:44:28.202Z,5.35
2022-10-11T06:48:42.444Z,5.63
2022-10-11T06:52:54.724Z,3.88
2022-10-11T06:57:07.075Z,8.18
2022-10-11T07:01:22.211Z,6.95
2022-10-11T07:05:35.602Z,6.20
2022-10-11T07:09:48.179Z,3.22
2022-10-11T07:14:03.048Z,4.82
2022-10-11T07:18:15.355Z,3.35
2022-10-11T07:22:28.260Z,11.52
2022-10-11T07:26:40.798Z,8.88
2022-10-11T07:30:53.389Z,5.57
2022-10-11T07:35:11.785Z,2.95
2022-10-11T07:39:24.039Z,4.10
2022-10-11T07:43:38.023Z,5.63
2022-10-11T07:47:50.332Z,6.63
2022-10-11T07:52:02.660Z,6.28
2022-10-11T07:56:17.661Z,4.72
2022-10-11T08:00:30.016Z,9.88
2022-10-11T08:04:42.293Z,5.10
2022-10-11T08:08:54.611Z,5.03
2022-10-11T08:13:07.286Z,9.32
2022-10-11T08:17:19.573Z,5.38
2022-10-11T08:21:32.436Z,7.15
2022-10-11T08:25:47.301Z,4.65
2022-10-11T08:29:59.610Z,6.25
2022-10-11T08:34:12.364Z,3.08
2022-10-11T08:38:25.036Z,5.80
2022-10-11T08:42:46.531Z,3.58
2022-10-11T08:47:12.824Z,7.55
2022-10-11T08:51:31.491Z,3.05
2022-10-11T08:55:49.316Z,8.23
2022-10-11T09:00:05.810Z,3.38
2022-10-11T09:04:18.988Z,4.95
2022-10-11T09:09:04.230Z,6.30
2022-10-11T09:13:35.654Z,4.25
2022-10-11T09:17:56.766Z,5.35
2022-10-11T09:22:30.830Z,6.30
2022-10-11T09:26:49.244Z,4.22
2022-10-11T09:31:01.606Z,5.90
2022-10-11T09:35:18.076Z,8.73
2022-10-11T09:39:36.200Z,6.38
2022-10-11T09:43:51.846Z,5.15
2022-10-11T09:48:07.503Z,5.25
2022-10-11T09:52:23.083Z,8.65
2022-10-11T09:56:41.057Z,3.03
2022-10-11T10:01:08.349Z,12.73
2022-10-11T10:05:23.908Z,7.60
2022-10-11T10:09:36.203Z,4.95
2022-10-11T10:13:52.812Z,5.30
2022-10-11T10:18:11.372Z,2.72
2022-10-11T10:22:28.176Z,8.93
2022-10-11T10:27:09.526Z,4.68
2022-10-11T10:31:25.350Z,5.88
2022-10-11T10:36:03.196Z,7.25
2022-10-11T10:40:25.684Z,9.82
2022-10-11T10:44:37.980Z,4.32
2022-10-11T10:53:51.600Z,6.00
2022-10-11T10:58:15.181Z,8.55
2022-10-11T11:02:42.502Z,4.97
2022-10-11T11:07:25.070Z,3.92
2022-10-11T11:11:55.998Z,3.70
2022-10-11T11:16:29.067Z,5.93
2022-10-11T11:21:06.494Z,8.98
2022-10-11T11:25:44.705Z,4.75
2022-10-11T11:30:11.731Z,5.47
2022-10-11T11:34:29.428Z,6.68
2022-10-11T11:38:41.653Z,6.10
2022-10-11T11:43:04.349Z,6.35
2022-10-11T11:47:33.863Z,7.63
2022-10-11T11:51:47.223Z,3.10
2022-10-11T11:56:08.085Z,4.10
2022-10-11T12:00:35.644Z,6.07
2022-10-11T12:04:50.023Z,7.30
2022-10-11T12:09:36.007Z,6.68
2022-10-11T12:13:51.601Z,8.85
2022-10-11T12:18:14.711Z,5.40
2022-10-11T12:22:30.097Z,10.73
2022-10-11T12:26:45.360Z,4.78
2022-10-11T12:31:06.963Z,8.65
2022-10-11T12:35:31.672Z,4.63
2022-10-11T12:39:49.873Z,5.38
2022-10-11T12:44:10.544Z,4.17
2022-10-11T12:48:41.063Z,12.48
2022-10-11T12:53:12.889Z,10.18
2022-10-11T12:57:51.275Z,3.05
2022-10-11T13:02:04.670Z,5.30
2022-10-11T13:06:27.903Z,6.38
2022-10-11T13:10:45.105Z,5.00
2022-10-11T13:15:09.248Z,6.35
2022-10-11T13:19:24.124Z,4.15
2022-10-11T13:23:39.648Z,7.65
2022-10-11T13:27:54.153Z,8.00
2022-10-11T13:32:17.311Z,5.85
2022-10-11T13:36:29.933Z,10.20
2022-10-11T13:40:42.287Z,8.15
2022-10-11T13:44:54.848Z,6.43
2022-10-11T13:49:30.331Z,9.00
2022-10-11T13:53:59.275Z,5.03
2022-10-11T13:58:18.948Z,7.90
2022-10-11T14:02:33.476Z,7.97
2022-10-11T14:06:51.385Z,9.57
2022-10-11T14:11:06.497Z,6.88
2022-10-11T14:15:28.400Z,6.22
2022-10-11T14:19:42.978Z,7.88
2022-10-11T14:23:59.096Z,10.48
2022-10-11T14:28:13.784Z,11.43
2022-10-11T14:32:34.790Z,5.90
2022-10-11T14:36:47.575Z,8.52
2022-10-11T14:40:59.837Z,5.47
2022-10-11T14:45:12.188Z,7.20
2022-10-11T14:49:27.143Z,7.70
2022-10-11T14:53:42.837Z,9.30
2022-10-11T14:57:56.109Z,6.03
2022-10-11T15:02:11.801Z,3.50
2022-10-11T15:06:37.603Z,5.05
2022-10-11T15:10:49.972Z,4.80
2022-10-11T15:15:02.296Z,7.38
2022-10-11T15:19:17.119Z,5.40
2022-10-11T15:23:29.497Z,3.92
2022-10-11T15:27:43.151Z,6.63
2022-10-11T15:31:55.486Z,11.82
2022-10-11T15:36:12.076Z,6.72
2022-10-11T15:40:36.169Z,8.80
2022-10-11T15:44:48.478Z,7.28
2022-10-11T15:49:05.901Z,4.05
2022-10-11T15:53:22.154Z,11.60
2022-10-11T15:57:34.437Z,7.60
2022-10-11T16:01:47.696Z,6.88
2022-10-11T16:06:04.892Z,5.95
2022-10-11T16:10:18.921Z,6.97
2022-10-11T16:14:31.211Z,10.68
2022-10-11T16:18:43.858Z,5.95
2022-10-11T16:22:56.205Z,5.60
2022-10-11T16:27:08.523Z,4.95
2022-10-11T16:31:21.729Z,7.80
2022-10-11T16:35:34.118Z,4.32
2022-10-11T16:39:47.351Z,8.70
2022-10-11T16:43:59.633Z,7.40
2022-10-11T16:48:11.947Z,8.45
2022-10-11T16:52:24.254Z,7.43
2022-10-11T16:56:39.877Z,8.85
2022-10-11T17:00:52.601Z,7.15
2022-10-11T17:05:05.585Z,5.25
2022-10-11T17:09:18.337Z,6.50
2022-10-11T17:13:31.575Z,8.45
2022-10-11T17:17:43.857Z,8.65
2022-10-11T17:21:56.412Z,7.72
2022-10-11T17:26:13.273Z,8.63
2022-10-11T17:30:26.901Z,8.18
2022-10-11T17:34:39.225Z,11.65
2022-10-11T17:38:53.685Z,16.15
2022-10-11T17:43:05.945Z,14.80
2022-10-11T17:47:18.239Z,9.13
2022-10-11T17:51:30.544Z,13.60
2022-10-11T17:55:43.429Z,13.32
2022-10-11T17:59:55.733Z,7.03
2022-10-11T18:04:08.533Z,13.65
2022-10-11T18:08:20.811Z,13.45
2022-10-11T18:12:33.156Z,15.70
2022-10-11T18:16:45.640Z,11.05
2022-10-11T18:20:58.026Z,9.95
2022-10-11T18:25:10.403Z,11.20
2022-10-11T18:29:22.725Z,10.43
2022-10-11T18:33:37.579Z,12.32
2022-10-11T18:37:51.672Z,14.85
2022-10-11T18:42:05.422Z,9.45
2022-10-11T18:46:18.701Z,9.25
2022-10-11T18:50:35.659Z,10.32
2022-10-11T18:54:47.937Z,11.95
2022-10-11T18:59:00.637Z,11.25
2022-10-11T19:03:12.887Z,10.70
2022-10-11T19:07:25.208Z,14.10
2022-10-11T19:11:38.586Z,10.95
2022-10-11T19:15:50.859Z,13.25
2022-10-11T19:20:03.257Z,10.35
2022-10-11T19:24:21.160Z,12.57
2022-10-11T19:28:33.731Z,9.63
2022-10-11T19:32:46.023Z,12.88
2022-10-11T19:37:01.583Z,12.10
2022-10-11T19:41:18.722Z,14.00
2022-10-11T19:45:31.080Z,11.43
2022-10-11T19:49:43.336Z,21.58
2022-10-11T19:54:00.614Z,13.82
2022-10-11T19:58:12.892Z,15.10
2022-10-11T20:02:25.164Z,14.23
2022-10-11T20:06:41.008Z,13.85
2022-10-11T20:10:56.565Z,11.23
2022-10-11T20:15:09.199Z,12.30
2022-10-11T20:19:26.457Z,12.85
2022-10-11T20:23:45.037Z,15.57
2022-10-11T20:27:57.354Z,15.60
2022-10-11T20:32:09.705Z,9.95
2022-10-11T20:36:23.726Z,11.15
2022-10-11T20:40:36.053Z,13.48
2022-10-11T20:44:54.366Z,16.20
2022-10-11T20:49:11.573Z,16.63
2022-10-11T20:53:25.520Z,13.05
2022-10-11T20:57:37.816Z,12.43
2022-10-11T21:01:50.121Z,14.55
2022-10-11T21:06:02.469Z,11.20
2022-10-11T21:10:14.737Z,13.88
2022-10-11T21:14:27.425Z,18.00
2022-10-11T21:18:40.262Z,13.02
2022-10-11T21:22:52.536Z,14.77
2022-10-11T21:27:04.814Z,13.90
2022-10-11T21:31:18.977Z,13.73
2022-10-11T21:35:31.908Z,16.85
2022-10-11T21:39:44.221Z,18.48
2022-10-11T21:43:56.886Z,11.00
2022-10-11T21:48:09.160Z,13.55
2022-10-11T21:52:21.489Z,18.77
2022-10-11T21:56:33.890Z,20.05
2022-10-11T22:00:47.601Z,19.98
2022-10-11T22:04:59.941Z,13.07
2022-10-11T22:09:12.303Z,17.00
2022-10-11T22:13:35.447Z,14.40
2022-10-11T22:17:47.882Z,13.20
2022-10-11T22:22:00.153Z,14.32
2022-10-11T22:26:17.897Z,13.85
2022-10-11T22:30:30.645Z,16.33
2022-10-11T22:34:42.976Z,16.40
2022-10-11T22:38:55.502Z,18.08
2022-10-11T22:43:07.768Z,12.55
2022-10-11T22:47:20.028Z,15.00
2022-10-11T22:51:32.370Z,11.85
2022-10-11T22:55:44.683Z,15.25
2022-10-11T22:59:56.985Z,14.93
2022-10-11T23:04:09.263Z,17.27
2022-10-11T23:08:21.581Z,14.10
2022-10-11T23:12:33.925Z,20.27
2022-10-11T23:16:47.307Z,17.10
2022-10-11T23:21:03.205Z,13.48
2022-10-11T23:25:15.885Z,17.92
2022-10-11T23:29:31.136Z,16.60
2022-10-11T23:33:47.133Z,22.20
2022-10-11T23:37:59.385Z,17.00
2022-10-11T23:42:11.747Z,16.77
2022-10-11T23:46:24.435Z,18.33
2022-10-11T23:50:36.727Z,17.88
2022-10-11T23:54:49.065Z,16.63
2022-10-11T23:59:02.360Z,17.67
